sensor_id;sensor_type;location;lat;lon;timestamp;P1;durP1;ratioP1;P2;durP2;ratioP2
14474;SDS011;7323;50.848;4.334;2023-03-24T00:00:28;5.23;;;2.00;;
14474;SDS011;7323;50.848;4.334;2023-03-24T00:02:58;3.07;;;1.93;;
14474;SDS011;7323;50.848;4.334;2023-03-24T00:05:29;5.73;;;2.67;;
14474;SDS011;7323;50.848;4.334;2023-03-24T00:07:56;3.70;;;2.40;;
14474;SDS011;7323;50.848;4.334;2023-03-24T00:10:24;4.37;;;2.73;;
14474;SDS011;7323;50.848;4.334;2023-03-24T00:12:55;5.07;;;2.90;;
14474;SDS011;7323;50.848;4.334;2023-03-24T00:15:23;3.47;;;1.90;;
14474;SDS011;7323;50.848;4.334;2023-03-24T00:17:50;5.07;;;2.20;;
14474;SDS011;7323;50.848;4.334;2023-03-24T00:20:19;5.47;;;2.53;;
14474;SDS011;7323;50.848;4.334;2023-03-24T00:22:50;4.87;;;2.33;;
14474;SDS011;7323;50.848;4.334;2023-03-24T00:25:26;3.43;;;1.90;;
14474;SDS011;7323;50.848;4.334;2023-03-24T00:27:58;4.37;;;2.33;;
14474;SDS011;7323;50.848;4.334;2023-03-24T00:30:24;3.83;;;2.20;;
14474;SDS011;7323;50.848;4.334;2023-03-24T00:32:50;4.10;;;2.23;;
14474;SDS011;7323;50.848;4.334;2023-03-24T00:35:16;3.27;;;2.37;;
14474;SDS011;7323;50.848;4.334;2023-03-24T00:37:43;3.37;;;2.20;;
14474;SDS011;7323;50.848;4.334;2023-03-24T00:40:10;4.60;;;2.30;;
14474;SDS011;7323;50.848;4.334;2023-03-24T00:42:40;4.50;;;1.87;;
14474;SDS011;7323;50.848;4.334;2023-03-24T00:45:15;4.40;;;2.10;;
14474;SDS011;7323;50.848;4.334;2023-03-24T00:47:44;3.83;;;2.23;;
14474;SDS011;7323;50.848;4.334;2023-03-24T00:50:12;3.33;;;2.20;;
14474;SDS011;7323;50.848;4.334;2023-03-24T00:52:39;3.80;;;2.30;;
14474;SDS011;7323;50.848;4.334;2023-03-24T00:55:08;3.87;;;2.33;;
14474;SDS011;7323;50.848;4.334;2023-03-24T00:57:38;4.73;;;1.80;;
14474;SDS011;7323;50.848;4.334;2023-03-24T01:00:05;4.73;;;2.13;;
14474;SDS011;7323;50.848;4.334;2023-03-24T01:05:13;3.60;;;2.20;;
14474;SDS011;7323;50.848;4.334;2023-03-24T01:07:43;4.17;;;2.03;;
14474;SDS011;7323;50.848;4.334;2023-03-24T01:10:11;4.97;;;2.43;;
14474;SDS011;7323;50.848;4.334;2023-03-24T01:12:38;3.23;;;1.93;;
14474;SDS011;7323;50.848;4.334;2023-03-24T01:15:06;3.63;;;2.27;;
14474;SDS011;7323;50.848;4.334;2023-03-24T01:17:37;2.73;;;1.80;;
14474;SDS011;7323;50.848;4.334;2023-03-24T01:20:03;3.63;;;2.60;;
14474;SDS011;7323;50.848;4.334;2023-03-24T01:22:32;3.97;;;2.23;;
14474;SDS011;7323;50.848;4.334;2023-03-24T01:25:02;3.27;;;2.03;;
14474;SDS011;7323;50.848;4.334;2023-03-24T01:27:29;3.57;;;2.27;;
14474;SDS011;7323;50.848;4.334;2023-03-24T01:29:59;3.00;;;2.07;;
14474;SDS011;7323;50.848;4.334;2023-03-24T01:32:28;4.60;;;2.10;;
14474;SDS011;7323;50.848;4.334;2023-03-24T01:35:02;3.50;;;2.20;;
14474;SDS011;7323;50.848;4.334;2023-03-24T01:37:29;3.73;;;1.90;;
14474;SDS011;7323;50.848;4.334;2023-03-24T01:39:58;3.67;;;2.10;;
14474;SDS011;7323;50.848;4.334;2023-03-24T01:42:24;3.07;;;2.20;;
14474;SDS011;7323;50.848;4.334;2023-03-24T01:44:53;4.83;;;2.33;;
14474;SDS011;7323;50.848;4.334;2023-03-24T01:47:47;4.77;;;2.57;;
14474;SDS011;7323;50.848;4.334;2023-03-24T01:50:13;3.77;;;2.57;;
14474;SDS011;7323;50.848;4.334;2023-03-24T01:52:39;4.37;;;2.80;;
14474;SDS011;7323;50.848;4.334;2023-03-24T01:55:14;3.93;;;2.77;;
14474;SDS011;7323;50.848;4.334;2023-03-24T01:57:48;5.43;;;2.70;;
14474;SDS011;7323;50.848;4.334;2023-03-24T02:00:18;4.63;;;2.60;;
14474;SDS011;7323;50.848;4.334;2023-03-24T02:02:46;4.60;;;2.40;;
14474;SDS011;7323;50.848;4.334;2023-03-24T02:05:20;2.40;;;1.93;;
14474;SDS011;7323;50.848;4.334;2023-03-24T02:10:32;2.47;;;1.70;;
14474;SDS011;7323;50.848;4.334;2023-03-24T02:15:30;2.10;;;1.57;;
14474;SDS011;7323;50.848;4.334;2023-03-24T02:20:55;2.90;;;1.20;;
14474;SDS011;7323;50.848;4.334;2023-03-24T02:26:35;2.00;;;1.30;;
14474;SDS011;7323;50.848;4.334;2023-03-24T02:40:25;2.83;;;1.30;;
14474;SDS011;7323;50.848;4.334;2023-03-24T02:46:05;2.03;;;0.97;;
14474;SDS011;7323;50.848;4.334;2023-03-24T02:48:44;2.33;;;1.20;;
14474;SDS011;7323;50.848;4.334;2023-03-24T02:51:15;3.87;;;1.10;;
14474;SDS011;7323;50.848;4.334;2023-03-24T03:02:07;2.63;;;1.10;;
14474;SDS011;7323;50.848;4.334;2023-03-24T03:04:41;4.50;;;1.00;;
14474;SDS011;7323;50.848;4.334;2023-03-24T03:07:14;3.03;;;1.00;;
14474;SDS011;7323;50.848;4.334;2023-03-24T03:09:52;8.23;;;1.60;;
14474;SDS011;7323;50.848;4.334;2023-03-24T03:12:24;4.17;;;1.20;;
14474;SDS011;7323;50.848;4.334;2023-03-24T03:15:03;5.33;;;1.43;;
14474;SDS011;7323;50.848;4.334;2023-03-24T03:17:34;4.60;;;1.60;;
14474;SDS011;7323;50.848;4.334;2023-03-24T03:20:08;8.57;;;1.60;;
14474;SDS011;7323;50.848;4.334;2023-03-24T03:22:43;9.27;;;1.60;;
14474;SDS011;7323;50.848;4.334;2023-03-24T03:25:14;3.40;;;1.33;;
14474;SDS011;7323;50.848;4.334;2023-03-24T03:27:42;4.30;;;1.17;;
14474;SDS011;7323;50.848;4.334;2023-03-24T03:30:21;5.87;;;1.40;;
14474;SDS011;7323;50.848;4.334;2023-03-24T03:33:15;4.53;;;1.20;;
14474;SDS011;7323;50.848;4.334;2023-03-24T03:35:51;6.87;;;1.40;;
14474;SDS011;7323;50.848;4.334;2023-03-24T03:41:15;6.73;;;1.83;;
14474;SDS011;7323;50.848;4.334;2023-03-24T03:43:42;7.23;;;1.97;;
14474;SDS011;7323;50.848;4.334;2023-03-24T03:46:09;7.90;;;2.13;;
14474;SDS011;7323;50.848;4.334;2023-03-24T03:48:36;8.10;;;2.10;;
14474;SDS011;7323;50.848;4.334;2023-03-24T03:51:04;10.13;;;1.87;;
14474;SDS011;7323;50.848;4.334;2023-03-24T03:53:36;5.80;;;2.07;;
14474;SDS011;7323;50.848;4.334;2023-03-24T03:56:13;6.50;;;1.97;;
14474;SDS011;7323;50.848;4.334;2023-03-24T03:58:44;6.77;;;1.70;;
14474;SDS011;7323;50.848;4.334;2023-03-24T04:01:12;7.30;;;2.03;;
14474;SDS011;7323;50.848;4.334;2023-03-24T04:15:02;8.50;;;1.63;;
14474;SDS011;7323;50.848;4.334;2023-03-24T04:20:16;8.33;;;2.10;;
14474;SDS011;7323;50.848;4.334;2023-03-24T04:23:01;10.87;;;2.87;;
14474;SDS011;7323;50.848;4.334;2023-03-24T04:31:39;7.33;;;1.93;;
14474;SDS011;7323;50.848;4.334;2023-03-24T04:34:17;10.10;;;2.27;;
14474;SDS011;7323;50.848;4.334;2023-03-24T04:39:37;7.43;;;2.23;;
14474;SDS011;7323;50.848;4.334;2023-03-24T04:42:07;14.80;;;2.63;;
14474;SDS011;7323;50.848;4.334;2023-03-24T04:44:37;8.03;;;2.33;;
14474;SDS011;7323;50.848;4.334;2023-03-24T04:47:05;10.20;;;2.83;;
14474;SDS011;7323;50.848;4.334;2023-03-24T04:49:37;13.47;;;2.77;;
14474;SDS011;7323;50.848;4.334;2023-03-24T04:52:06;15.40;;;3.20;;
14474;SDS011;7323;50.848;4.334;2023-03-24T04:54:32;10.90;;;3.27;;
14474;SDS011;7323;50.848;4.334;2023-03-24T04:56:59;9.17;;;2.80;;
14474;SDS011;7323;50.848;4.334;2023-03-24T04:59:27;11.77;;;3.17;;
14474;SDS011;7323;50.848;4.334;2023-03-24T05:02:00;11.03;;;3.23;;
14474;SDS011;7323;50.848;4.334;2023-03-24T05:04:27;7.40;;;2.50;;
14474;SDS011;7323;50.848;4.334;2023-03-24T05:07:00;8.30;;;2.67;;
14474;SDS011;7323;50.848;4.334;2023-03-24T05:09:30;10.73;;;2.87;;
14474;SDS011;7323;50.848;4.334;2023-03-24T05:11:59;10.50;;;3.23;;
14474;SDS011;7323;50.848;4.334;2023-03-24T05:14:24;11.20;;;2.87;;
14474;SDS011;7323;50.848;4.334;2023-03-24T05:16:54;13.07;;;3.40;;
14474;SDS011;7323;50.848;4.334;2023-03-24T05:19:20;11.63;;;2.97;;
14474;SDS011;7323;50.848;4.334;2023-03-24T05:21:45;8.43;;;2.50;;
14474;SDS011;7323;50.848;4.334;2023-03-24T05:24:12;11.27;;;3.00;;
14474;SDS011;7323;50.848;4.334;2023-03-24T05:26:37;7.47;;;2.63;;
14474;SDS011;7323;50.848;4.334;2023-03-24T05:29:03;10.00;;;2.80;;
14474;SDS011;7323;50.848;4.334;2023-03-24T05:31:29;10.30;;;3.17;;
14474;SDS011;7323;50.848;4.334;2023-03-24T05:33:54;12.07;;;3.43;;
14474;SDS011;7323;50.848;4.334;2023-03-24T05:36:22;9.87;;;2.60;;
14474;SDS011;7323;50.848;4.334;2023-03-24T05:38:48;15.90;;;3.17;;
14474;SDS011;7323;50.848;4.334;2023-03-24T05:41:16;8.97;;;2.37;;
14474;SDS011;7323;50.848;4.334;2023-03-24T05:43:42;10.43;;;2.97;;
14474;SDS011;7323;50.848;4.334;2023-03-24T05:46:08;11.03;;;2.27;;
14474;SDS011;7323;50.848;4.334;2023-03-24T05:48:34;8.67;;;2.77;;
14474;SDS011;7323;50.848;4.334;2023-03-24T05:51:00;10.07;;;2.83;;
14474;SDS011;7323;50.848;4.334;2023-03-24T05:53:26;12.10;;;2.83;;
14474;SDS011;7323;50.848;4.334;2023-03-24T05:55:55;14.50;;;2.80;;
14474;SDS011;7323;50.848;4.334;2023-03-24T05:58:23;9.67;;;2.67;;
14474;SDS011;7323;50.848;4.334;2023-03-24T06:00:55;12.37;;;3.03;;
14474;SDS011;7323;50.848;4.334;2023-03-24T06:03:22;14.60;;;2.77;;
14474;SDS011;7323;50.848;4.334;2023-03-24T06:05:48;7.40;;;2.00;;
14474;SDS011;7323;50.848;4.334;2023-03-24T06:08:14;12.03;;;3.50;;
14474;SDS011;7323;50.848;4.334;2023-03-24T06:10:41;8.13;;;2.53;;
14474;SDS011;7323;50.848;4.334;2023-03-24T06:13:12;7.10;;;2.30;;
14474;SDS011;7323;50.848;4.334;2023-03-24T06:15:39;11.47;;;2.53;;
14474;SDS011;7323;50.848;4.334;2023-03-24T06:18:06;10.23;;;2.83;;
14474;SDS011;7323;50.848;4.334;2023-03-24T06:20:32;12.13;;;2.67;;
14474;SDS011;7323;50.848;4.334;2023-03-24T06:22:58;8.53;;;2.70;;
14474;SDS011;7323;50.848;4.334;2023-03-24T06:25:24;14.33;;;3.23;;
14474;SDS011;7323;50.848;4.334;2023-03-24T06:27:51;11.63;;;2.57;;
14474;SDS011;7323;50.848;4.334;2023-03-24T06:30:17;10.13;;;2.53;;
14474;SDS011;7323;50.848;4.334;2023-03-24T06:32:43;13.37;;;2.90;;
14474;SDS011;7323;50.848;4.334;2023-03-24T06:35:13;13.23;;;2.43;;
14474;SDS011;7323;50.848;4.334;2023-03-24T06:37:39;10.73;;;2.50;;
14474;SDS011;7323;50.848;4.334;2023-03-24T06:40:05;9.30;;;2.57;;
14474;SDS011;7323;50.848;4.334;2023-03-24T06:42:34;12.47;;;2.43;;
14474;SDS011;7323;50.848;4.334;2023-03-24T06:45:00;9.47;;;2.80;;
14474;SDS011;7323;50.848;4.334;2023-03-24T06:47:29;9.90;;;2.67;;
14474;SDS011;7323;50.848;4.334;2023-03-24T06:49:55;12.60;;;2.80;;
14474;SDS011;7323;50.848;4.334;2023-03-24T06:52:21;13.97;;;2.70;;
14474;SDS011;7323;50.848;4.334;2023-03-24T06:54:48;9.37;;;2.10;;
14474;SDS011;7323;50.848;4.334;2023-03-24T06:57:16;15.07;;;3.33;;
14474;SDS011;7323;50.848;4.334;2023-03-24T06:59:41;9.43;;;2.13;;
14474;SDS011;7323;50.848;4.334;2023-03-24T07:02:08;8.07;;;2.30;;
14474;SDS011;7323;50.848;4.334;2023-03-24T07:04:36;10.97;;;2.70;;
14474;SDS011;7323;50.848;4.334;2023-03-24T07:07:02;8.73;;;2.50;;
14474;SDS011;7323;50.848;4.334;2023-03-24T07:09:28;12.17;;;3.17;;
14474;SDS011;7323;50.848;4.334;2023-03-24T07:11:54;12.03;;;2.87;;
14474;SDS011;7323;50.848;4.334;2023-03-24T07:14:20;8.40;;;2.87;;
14474;SDS011;7323;50.848;4.334;2023-03-24T07:16:46;9.23;;;2.40;;
14474;SDS011;7323;50.848;4.334;2023-03-24T07:19:11;11.83;;;3.07;;
14474;SDS011;7323;50.848;4.334;2023-03-24T07:21:37;10.53;;;2.40;;
14474;SDS011;7323;50.848;4.334;2023-03-24T07:24:03;9.97;;;3.40;;
14474;SDS011;7323;50.848;4.334;2023-03-24T07:26:29;10.33;;;2.60;;
14474;SDS011;7323;50.848;4.334;2023-03-24T07:28:54;10.30;;;2.83;;
14474;SDS011;7323;50.848;4.334;2023-03-24T07:31:20;10.30;;;2.50;;
14474;SDS011;7323;50.848;4.334;2023-03-24T07:33:46;10.13;;;3.20;;
14474;SDS011;7323;50.848;4.334;2023-03-24T07:36:12;8.53;;;2.70;;
14474;SDS011;7323;50.848;4.334;2023-03-24T07:38:38;9.80;;;2.80;;
14474;SDS011;7323;50.848;4.334;2023-03-24T07:41:03;9.60;;;2.77;;
14474;SDS011;7323;50.848;4.334;2023-03-24T07:43:29;7.47;;;2.20;;
14474;SDS011;7323;50.848;4.334;2023-03-24T07:45:55;8.10;;;2.60;;
14474;SDS011;7323;50.848;4.334;2023-03-24T07:48:20;11.13;;;3.17;;
14474;SDS011;7323;50.848;4.334;2023-03-24T07:50:46;7.97;;;2.57;;
14474;SDS011;7323;50.848;4.334;2023-03-24T07:53:12;10.27;;;2.90;;
14474;SDS011;7323;50.848;4.334;2023-03-24T07:55:42;7.80;;;2.30;;
14474;SDS011;7323;50.848;4.334;2023-03-24T07:58:08;10.63;;;2.43;;
14474;SDS011;7323;50.848;4.334;2023-03-24T08:00:33;8.73;;;2.57;;
14474;SDS011;7323;50.848;4.334;2023-03-24T08:02:59;8.17;;;2.67;;
14474;SDS011;7323;50.848;4.334;2023-03-24T08:05:25;11.00;;;3.30;;
14474;SDS011;7323;50.848;4.334;2023-03-24T08:07:54;9.83;;;2.50;;
14474;SDS011;7323;50.848;4.334;2023-03-24T08:10:20;8.37;;;2.63;;
14474;SDS011;7323;50.848;4.334;2023-03-24T08:12:48;9.80;;;2.53;;
14474;SDS011;7323;50.848;4.334;2023-03-24T08:15:13;8.10;;;2.60;;
14474;SDS011;7323;50.848;4.334;2023-03-24T08:17:39;12.97;;;2.27;;
14474;SDS011;7323;50.848;4.334;2023-03-24T08:20:06;9.20;;;2.77;;
14474;SDS011;7323;50.848;4.334;2023-03-24T08:22:37;9.83;;;3.30;;
14474;SDS011;7323;50.848;4.334;2023-03-24T08:25:06;12.33;;;2.70;;
14474;SDS011;7323;50.848;4.334;2023-03-24T08:27:36;8.37;;;2.57;;
14474;SDS011;7323;50.848;4.334;2023-03-24T08:30:07;10.83;;;2.50;;
14474;SDS011;7323;50.848;4.334;2023-03-24T08:32:39;8.17;;;2.57;;
14474;SDS011;7323;50.848;4.334;2023-03-24T08:35:12;11.80;;;2.40;;
14474;SDS011;7323;50.848;4.334;2023-03-24T08:37:41;8.60;;;2.70;;
14474;SDS011;7323;50.848;4.334;2023-03-24T08:40:08;9.57;;;2.40;;
14474;SDS011;7323;50.848;4.334;2023-03-24T08:42:38;9.40;;;2.33;;
14474;SDS011;7323;50.848;4.334;2023-03-24T08:45:04;8.03;;;3.20;;
14474;SDS011;7323;50.848;4.334;2023-03-24T08:47:31;11.83;;;3.33;;
14474;SDS011;7323;50.848;4.334;2023-03-24T08:49:56;12.77;;;2.93;;
14474;SDS011;7323;50.848;4.334;2023-03-24T08:52:22;10.43;;;2.33;;
14474;SDS011;7323;50.848;4.334;2023-03-24T08:54:49;10.50;;;2.93;;
14474;SDS011;7323;50.848;4.334;2023-03-24T08:57:14;9.23;;;2.10;;
14474;SDS011;7323;50.848;4.334;2023-03-24T08:59:41;8.47;;;2.57;;
14474;SDS011;7323;50.848;4.334;2023-03-24T09:02:08;10.97;;;2.27;;
14474;SDS011;7323;50.848;4.334;2023-03-24T09:04:37;11.50;;;2.50;;
14474;SDS011;7323;50.848;4.334;2023-03-24T09:07:03;11.50;;;2.27;;
14474;SDS011;7323;50.848;4.334;2023-03-24T09:09:30;13.57;;;2.70;;
14474;SDS011;7323;50.848;4.334;2023-03-24T09:11:57;10.03;;;2.67;;
14474;SDS011;7323;50.848;4.334;2023-03-24T09:14:23;10.07;;;2.30;;
14474;SDS011;7323;50.848;4.334;2023-03-24T09:16:48;10.33;;;2.60;;
14474;SDS011;7323;50.848;4.334;2023-03-24T09:19:15;10.43;;;2.60;;
14474;SDS011;7323;50.848;4.334;2023-03-24T09:21:43;7.80;;;2.10;;
14474;SDS011;7323;50.848;4.334;2023-03-24T09:24:10;10.70;;;2.63;;
14474;SDS011;7323;50.848;4.334;2023-03-24T09:26:36;9.80;;;2.63;;
14474;SDS011;7323;50.848;4.334;2023-03-24T09:29:02;7.53;;;2.80;;
14474;SDS011;7323;50.848;4.334;2023-03-24T09:31:28;8.83;;;2.27;;
14474;SDS011;7323;50.848;4.334;2023-03-24T09:33:54;7.90;;;2.20;;
14474;SDS011;7323;50.848;4.334;2023-03-24T09:36:19;6.60;;;2.27;;
14474;SDS011;7323;50.848;4.334;2023-03-24T09:38:45;10.17;;;2.27;;
14474;SDS011;7323;50.848;4.334;2023-03-24T09:41:18;11.37;;;2.37;;
14474;SDS011;7323;50.848;4.334;2023-03-24T09:44:35;11.63;;;2.30;;
14474;SDS011;7323;50.848;4.334;2023-03-24T09:46:46;9.90;;;2.27;;
14474;SDS011;7323;50.848;4.334;2023-03-24T09:49:15;8.40;;;2.90;;
14474;SDS011;7323;50.848;4.334;2023-03-24T09:51:52;8.47;;;1.97;;
14474;SDS011;7323;50.848;4.334;2023-03-24T09:54:41;8.07;;;2.80;;
14474;SDS011;7323;50.848;4.334;2023-03-24T10:00:17;7.33;;;2.47;;
14474;SDS011;7323;50.848;4.334;2023-03-24T10:02:44;8.90;;;2.50;;
14474;SDS011;7323;50.848;4.334;2023-03-24T10:05:17;8.47;;;2.63;;
14474;SDS011;7323;50.848;4.334;2023-03-24T10:11:03;10.63;;;2.83;;
14474;SDS011;7323;50.848;4.334;2023-03-24T10:19:10;6.70;;;2.07;;
14474;SDS011;7323;50.848;4.334;2023-03-24T10:22:03;8.63;;;2.50;;
14474;SDS011;7323;50.848;4.334;2023-03-24T10:24:44;10.77;;;2.53;;
14474;SDS011;7323;50.848;4.334;2023-03-24T10:27:27;9.37;;;2.67;;
14474;SDS011;7323;50.848;4.334;2023-03-24T10:30:03;7.20;;;2.13;;
14474;SDS011;7323;50.848;4.334;2023-03-24T10:32:37;6.17;;;1.87;;
14474;SDS011;7323;50.848;4.334;2023-03-24T10:35:06;5.43;;;1.53;;
14474;SDS011;7323;50.848;4.334;2023-03-24T10:37:44;9.60;;;2.27;;
14474;SDS011;7323;50.848;4.334;2023-03-24T10:40:13;11.67;;;2.60;;
14474;SDS011;7323;50.848;4.334;2023-03-24T10:42:42;8.30;;;2.20;;
14474;SDS011;7323;50.848;4.334;2023-03-24T10:45:11;8.27;;;2.80;;
14474;SDS011;7323;50.848;4.334;2023-03-24T10:47:43;8.47;;;2.67;;
14474;SDS011;7323;50.848;4.334;2023-03-24T10:50:08;11.90;;;2.57;;
14474;SDS011;7323;50.848;4.334;2023-03-24T10:52:39;11.10;;;2.43;;
14474;SDS011;7323;50.848;4.334;2023-03-24T10:55:13;6.27;;;2.37;;
14474;SDS011;7323;50.848;4.334;2023-03-24T10:57:44;8.00;;;2.17;;
14474;SDS011;7323;50.848;4.334;2023-03-24T11:00:15;7.70;;;2.40;;
14474;SDS011;7323;50.848;4.334;2023-03-24T11:03:04;10.07;;;2.40;;
14474;SDS011;7323;50.848;4.334;2023-03-24T11:05:34;10.73;;;2.70;;
14474;SDS011;7323;50.848;4.334;2023-03-24T11:10:53;8.13;;;2.40;;
14474;SDS011;7323;50.848;4.334;2023-03-24T11:13:40;11.57;;;3.00;;
14474;SDS011;7323;50.848;4.334;2023-03-24T11:16:13;8.27;;;2.03;;
14474;SDS011;7323;50.848;4.334;2023-03-24T11:21:42;7.40;;;1.87;;
14474;SDS011;7323;50.848;4.334;2023-03-24T11:24:10;9.07;;;2.10;;
14474;SDS011;7323;50.848;4.334;2023-03-24T11:26:38;9.67;;;2.20;;
14474;SDS011;7323;50.848;4.334;2023-03-24T11:29:06;8.50;;;2.13;;
14474;SDS011;7323;50.848;4.334;2023-03-24T11:31:37;8.60;;;2.50;;
14474;SDS011;7323;50.848;4.334;2023-03-24T11:34:08;10.77;;;2.60;;
14474;SDS011;7323;50.848;4.334;2023-03-24T11:40:35;7.70;;;2.23;;
14474;SDS011;7323;50.848;4.334;2023-03-24T11:42:40;8.73;;;2.70;;
14474;SDS011;7323;50.848;4.334;2023-03-24T11:48:25;8.73;;;2.57;;
14474;SDS011;7323;50.848;4.334;2023-03-24T11:50:58;9.60;;;2.30;;
14474;SDS011;7323;50.848;4.334;2023-03-24T11:53:26;10.90;;;2.47;;
14474;SDS011;7323;50.848;4.334;2023-03-24T11:56:05;10.27;;;2.53;;
14474;SDS011;7323;50.848;4.334;2023-03-24T11:58:57;6.63;;;2.37;;
14474;SDS011;7323;50.848;4.334;2023-03-24T12:01:35;5.63;;;1.80;;
14474;SDS011;7323;50.848;4.334;2023-03-24T12:10:15;9.87;;;2.20;;
14474;SDS011;7323;50.848;4.334;2023-03-24T12:12:51;7.23;;;1.77;;
14474;SDS011;7323;50.848;4.334;2023-03-24T12:18:30;5.83;;;2.10;;
14474;SDS011;7323;50.848;4.334;2023-03-24T12:21:24;10.07;;;2.80;;
14474;SDS011;7323;50.848;4.334;2023-03-24T12:24:36;8.73;;;1.93;;
14474;SDS011;7323;50.848;4.334;2023-03-24T12:42:01;10.23;;;2.70;;
14474;SDS011;7323;50.848;4.334;2023-03-24T12:55:49;7.63;;;1.70;;
14474;SDS011;7323;50.848;4.334;2023-03-24T12:58:35;6.90;;;1.73;;
14474;SDS011;7323;50.848;4.334;2023-03-24T13:01:23;4.57;;;1.40;;
14474;SDS011;7323;50.848;4.334;2023-03-24T13:04:09;5.30;;;1.40;;
14474;SDS011;7323;50.848;4.334;2023-03-24T13:06:54;5.13;;;1.50;;
14474;SDS011;7323;50.848;4.334;2023-03-24T13:16:38;5.07;;;1.40;;
14474;SDS011;7323;50.848;4.334;2023-03-24T13:18:58;5.07;;;1.30;;
14474;SDS011;7323;50.848;4.334;2023-03-24T13:21:32;3.13;;;1.30;;
14474;SDS011;7323;50.848;4.334;2023-03-24T13:24:28;4.70;;;1.13;;
14474;SDS011;7323;50.848;4.334;2023-03-24T13:32:10;6.03;;;1.53;;
14474;SDS011;7323;50.848;4.334;2023-03-24T13:34:49;6.37;;;1.50;;
14474;SDS011;7323;50.848;4.334;2023-03-24T13:37:19;5.17;;;1.60;;
14474;SDS011;7323;50.848;4.334;2023-03-24T13:39:56;6.67;;;1.93;;
14474;SDS011;7323;50.848;4.334;2023-03-24T13:42:31;5.07;;;2.07;;
14474;SDS011;7323;50.848;4.334;2023-03-24T13:45:00;5.10;;;2.17;;
14474;SDS011;7323;50.848;4.334;2023-03-24T13:48:16;9.20;;;2.40;;
14474;SDS011;7323;50.848;4.334;2023-03-24T13:50:20;7.30;;;1.73;;
14474;SDS011;7323;50.848;4.334;2023-03-24T13:52:48;7.70;;;1.87;;
14474;SDS011;7323;50.848;4.334;2023-03-24T13:55:19;7.37;;;1.77;;
14474;SDS011;7323;50.848;4.334;2023-03-24T13:57:51;4.63;;;1.60;;
14474;SDS011;7323;50.848;4.334;2023-03-24T14:03:45;6.73;;;1.70;;
14474;SDS011;7323;50.848;4.334;2023-03-24T14:09:14;6.50;;;2.00;;
14474;SDS011;7323;50.848;4.334;2023-03-24T14:14:27;6.40;;;1.70;;
14474;SDS011;7323;50.848;4.334;2023-03-24T14:22:08;7.73;;;2.20;;
14474;SDS011;7323;50.848;4.334;2023-03-24T14:24:37;6.07;;;1.97;;
14474;SDS011;7323;50.848;4.334;2023-03-24T14:30:21;9.30;;;1.90;;
14474;SDS011;7323;50.848;4.334;2023-03-24T14:32:55;10.27;;;2.43;;
14474;SDS011;7323;50.848;4.334;2023-03-24T14:37:58;7.80;;;1.83;;
14474;SDS011;7323;50.848;4.334;2023-03-24T14:40:51;8.07;;;1.80;;
14474;SDS011;7323;50.848;4.334;2023-03-24T14:45:54;5.50;;;2.00;;
14474;SDS011;7323;50.848;4.334;2023-03-24T14:48:24;8.10;;;2.17;;
14474;SDS011;7323;50.848;4.334;2023-03-24T14:50:53;5.43;;;1.60;;
14474;SDS011;7323;50.848;4.334;2023-03-24T14:53:28;4.60;;;1.37;;
14474;SDS011;7323;50.848;4.334;2023-03-24T14:55:54;3.83;;;1.33;;
14474;SDS011;7323;50.848;4.334;2023-03-24T14:58:21;6.50;;;1.60;;
14474;SDS011;7323;50.848;4.334;2023-03-24T15:00:56;7.83;;;1.67;;
14474;SDS011;7323;50.848;4.334;2023-03-24T15:06:29;4.70;;;1.20;;
14474;SDS011;7323;50.848;4.334;2023-03-24T15:08:56;4.40;;;1.23;;
14474;SDS011;7323;50.848;4.334;2023-03-24T15:11:24;4.83;;;1.13;;
14474;SDS011;7323;50.848;4.334;2023-03-24T15:16:52;3.00;;;1.27;;
14474;SDS011;7323;50.848;4.334;2023-03-24T15:19:30;3.67;;;1.27;;
14474;SDS011;7323;50.848;4.334;2023-03-24T15:22:10;3.43;;;1.00;;
14474;SDS011;7323;50.848;4.334;2023-03-24T15:24:40;2.97;;;1.00;;
14474;SDS011;7323;50.848;4.334;2023-03-24T15:27:13;2.67;;;1.00;;
14474;SDS011;7323;50.848;4.334;2023-03-24T15:29:56;5.53;;;1.30;;
14474;SDS011;7323;50.848;4.334;2023-03-24T15:32:28;4.47;;;1.20;;
14474;SDS011;7323;50.848;4.334;2023-03-24T15:35:05;4.27;;;1.43;;
14474;SDS011;7323;50.848;4.334;2023-03-24T15:37:35;5.10;;;1.30;;
14474;SDS011;7323;50.848;4.334;2023-03-24T15:43:20;4.60;;;1.23;;
14474;SDS011;7323;50.848;4.334;2023-03-24T15:45:49;6.20;;;1.60;;
14474;SDS011;7323;50.848;4.334;2023-03-24T15:48:33;5.53;;;1.50;;
14474;SDS011;7323;50.848;4.334;2023-03-24T15:56:27;6.77;;;1.30;;
14474;SDS011;7323;50.848;4.334;2023-03-24T16:01:29;5.10;;;1.50;;
14474;SDS011;7323;50.848;4.334;2023-03-24T16:04:00;4.67;;;1.40;;
14474;SDS011;7323;50.848;4.334;2023-03-24T16:06:31;4.97;;;1.40;;
14474;SDS011;7323;50.848;4.334;2023-03-24T16:09:06;7.20;;;1.20;;
14474;SDS011;7323;50.848;4.334;2023-03-24T16:11:40;4.00;;;1.20;;
14474;SDS011;7323;50.848;4.334;2023-03-24T16:14:23;4.77;;;1.30;;
14474;SDS011;7323;50.848;4.334;2023-03-24T16:16:52;7.57;;;1.73;;
14474;SDS011;7323;50.848;4.334;2023-03-24T16:19:29;6.13;;;2.00;;
14474;SDS011;7323;50.848;4.334;2023-03-24T16:21:59;5.10;;;1.43;;
14474;SDS011;7323;50.848;4.334;2023-03-24T16:24:26;3.93;;;1.77;;
14474;SDS011;7323;50.848;4.334;2023-03-24T16:26:52;4.60;;;1.50;;
14474;SDS011;7323;50.848;4.334;2023-03-24T16:29:18;5.63;;;1.30;;
14474;SDS011;7323;50.848;4.334;2023-03-24T16:31:48;4.33;;;1.77;;
14474;SDS011;7323;50.848;4.334;2023-03-24T16:34:15;5.20;;;1.83;;
14474;SDS011;7323;50.848;4.334;2023-03-24T16:36:50;6.00;;;1.63;;
14474;SDS011;7323;50.848;4.334;2023-03-24T16:39:24;6.73;;;1.60;;
14474;SDS011;7323;50.848;4.334;2023-03-24T16:41:53;5.80;;;1.60;;
14474;SDS011;7323;50.848;4.334;2023-03-24T16:44:19;5.73;;;2.10;;
14474;SDS011;7323;50.848;4.334;2023-03-24T16:46:47;6.60;;;1.83;;
14474;SDS011;7323;50.848;4.334;2023-03-24T16:50:21;6.70;;;1.80;;
14474;SDS011;7323;50.848;4.334;2023-03-24T16:52:52;5.53;;;1.70;;
14474;SDS011;7323;50.848;4.334;2023-03-24T16:55:19;4.93;;;1.47;;
14474;SDS011;7323;50.848;4.334;2023-03-24T17:00:56;4.23;;;1.50;;
14474;SDS011;7323;50.848;4.334;2023-03-24T17:03:25;4.60;;;1.80;;
14474;SDS011;7323;50.848;4.334;2023-03-24T17:08:46;3.50;;;1.40;;
14474;SDS011;7323;50.848;4.334;2023-03-24T17:11:12;3.00;;;0.90;;
14474;SDS011;7323;50.848;4.334;2023-03-24T17:13:39;4.03;;;1.20;;
14474;SDS011;7323;50.848;4.334;2023-03-24T17:16:08;3.97;;;1.10;;
14474;SDS011;7323;50.848;4.334;2023-03-24T17:18:57;1.73;;;0.93;;
14474;SDS011;7323;50.848;4.334;2023-03-24T17:21:22;2.10;;;0.90;;
14474;SDS011;7323;50.848;4.334;2023-03-24T17:23:49;2.87;;;1.00;;
14474;SDS011;7323;50.848;4.334;2023-03-24T17:26:19;2.13;;;0.73;;
14474;SDS011;7323;50.848;4.334;2023-03-24T17:28:48;2.70;;;1.17;;
14474;SDS011;7323;50.848;4.334;2023-03-24T17:31:14;2.20;;;0.77;;
14474;SDS011;7323;50.848;4.334;2023-03-24T17:33:42;3.87;;;1.20;;
14474;SDS011;7323;50.848;4.334;2023-03-24T17:36:12;4.63;;;1.57;;
14474;SDS011;7323;50.848;4.334;2023-03-24T17:38:43;5.43;;;1.40;;
14474;SDS011;7323;50.848;4.334;2023-03-24T17:41:13;4.83;;;1.37;;
14474;SDS011;7323;50.848;4.334;2023-03-24T17:43:43;2.23;;;0.90;;
14474;SDS011;7323;50.848;4.334;2023-03-24T17:46:09;3.33;;;1.30;;
14474;SDS011;7323;50.848;4.334;2023-03-24T17:48:38;2.37;;;1.13;;
14474;SDS011;7323;50.848;4.334;2023-03-24T17:51:04;2.93;;;1.03;;
14474;SDS011;7323;50.848;4.334;2023-03-24T17:53:30;2.07;;;0.90;;
14474;SDS011;7323;50.848;4.334;2023-03-24T17:56:00;3.00;;;1.10;;
14474;SDS011;7323;50.848;4.334;2023-03-24T17:58:30;3.50;;;1.13;;
14474;SDS011;7323;50.848;4.334;2023-03-24T18:00:57;3.00;;;0.90;;
14474;SDS011;7323;50.848;4.334;2023-03-24T18:03:34;3.07;;;1.30;;
14474;SDS011;7323;50.848;4.334;2023-03-24T18:06:06;2.53;;;1.07;;
14474;SDS011;7323;50.848;4.334;2023-03-24T18:11:12;3.63;;;1.10;;
14474;SDS011;7323;50.848;4.334;2023-03-24T18:13:41;3.57;;;1.23;;
14474;SDS011;7323;50.848;4.334;2023-03-24T18:16:08;2.57;;;1.23;;
14474;SDS011;7323;50.848;4.334;2023-03-24T18:18:35;6.87;;;2.00;;
14474;SDS011;7323;50.848;4.334;2023-03-24T18:21:07;3.53;;;1.10;;